Time;durP1;ratioP1;P1;durP2;ratioP2;P2;SDS_P1;SDS_P2;PMS_P1;PMS_P2;Temp;Humidity;BMP_temperature;BMP_pressure;BME280_temperature;BME280_humidity;BME280_pressure;Samples;Min_cycle;Max_cycle;Signal;HPM_P1;HPM_P2
2023/09/26 00:02:17;;;;;;;18.88;7.97;;;;;;;13.70;100.00;102033.47;5092997;28;20130;-64
2023/09/26 00:04:42;;;;;;;17.88;6.68;;;;;;;13.56;100.00;102022.72;5096820;28;20044;-64
2023/09/26 00:07:08;;;;;;;19.25;7.20;;;;;;;13.53;100.00;102018.25;5096644;28;20036;-63
2023/09/26 00:09:35;;;;;;;18.35;7.35;;;;;;;13.41;100.00;102018.13;5096289;28;20060;-63
2023/09/26 00:12:00;;;;;;;19.70;7.60;;;;;;;13.30;100.00;102019.75;5096490;28;20475;-65
2023/09/26 00:14:27;;;;;;;18.92;7.70;;;;;;;13.17;100.00;102019.59;5096137;28;20040;-64
2023/09/26 00:16:52;;;;;;;19.38;8.77;;;;;;;13.03;100.00;102019.44;5096152;28;20073;-64
2023/09/26 00:19:17;;;;;;;19.02;8.50;;;;;;;12.96;100.00;102019.31;5096616;28;20110;-64
2023/09/26 00:21:43;;;;;;;19.73;7.90;;;;;;;12.88;100.00;102027.19;5096040;28;20113;-64
2023/09/26 00:24:09;;;;;;;19.55;8.18;;;;;;;12.86;100.00;102021.84;5095874;28;20048;-64
2023/09/26 00:26:35;;;;;;;19.98;8.43;;;;;;;12.90;100.00;102031.63;5096440;28;20032;-79
2023/09/26 00:29:00;;;;;;;19.88;7.95;;;;;;;12.90;100.00;102026.34;5095944;28;20493;-79
2023/09/26 00:31:25;;;;;;;19.48;7.95;;;;;;;12.88;100.00;102020.09;5096026;28;20466;-76
2023/09/26 00:33:51;;;;;;;20.20;8.07;;;;;;;12.82;100.00;102022.69;5095773;28;20390;-79
2023/09/26 00:36:17;;;;;;;19.45;7.80;;;;;;;12.84;100.00;102022.69;5095877;28;20040;-76
2023/09/26 00:38:42;;;;;;;20.65;8.25;;;;;;;12.80;100.00;102019.13;5096219;28;20174;-76
2023/09/26 00:41:07;;;;;;;20.67;8.55;;;;;;;12.75;100.00;102020.81;5096017;28;20423;-79
2023/09/26 00:43:35;;;;;;;20.10;8.43;;;;;;;12.71;100.00;102024.28;5095975;28;20028;-79
2023/09/26 00:46:01;;;;;;;19.05;8.73;;;;;;;12.74;100.00;102024.31;5095825;28;20028;-79
2023/09/26 00:48:27;;;;;;;20.08;9.00;;;;;;;12.63;100.00;102025.94;5095742;28;20542;-76
2023/09/26 00:50:53;;;;;;;19.58;9.02;;;;;;;12.55;100.00;102024.06;5095477;28;20536;-79
2023/09/26 00:53:20;;;;;;;19.45;8.95;;;;;;;12.60;100.00;102025.91;5095654;28;20074;-79
2023/09/26 00:55:49;;;;;;;20.58;9.40;;;;;;;12.54;100.00;102026.72;5091447;28;20032;-79
2023/09/26 00:58:16;;;;;;;21.48;9.98;;;;;;;12.50;100.00;102023.09;5095348;28;20033;-74
2023/09/26 01:00:43;;;;;;;20.05;9.43;;;;;;;12.39;100.00;102019.38;5095510;28;20062;-80
2023/09/26 01:03:09;;;;;;;19.90;8.43;;;;;;;12.46;100.00;102015.06;5095015;28;20043;-79
2023/09/26 01:05:38;;;;;;;18.80;9.00;;;;;;;12.47;100.00;102014.22;5095461;28;20024;-71
2023/09/26 01:08:07;;;;;;;21.73;11.23;;;;;;;12.39;100.00;102016.72;5095670;28;20058;-79
2023/09/26 01:10:33;;;;;;;22.02;11.93;;;;;;;12.35;100.00;102006.97;5093885;28;20032;-66
2023/09/26 01:12:58;;;;;;;22.60;12.20;;;;;;;12.29;100.00;102014.81;5095067;28;20039;-68
2023/09/26 01:15:38;;;;;;;22.05;12.23;;;;;;;12.32;100.00;102004.25;5094023;28;20159;-65
2023/09/26 01:18:09;;;;;;;20.98;11.07;;;;;;;12.21;100.00;102012.03;5095189;28;20028;-67
2023/09/26 01:20:37;;;;;;;21.05;11.13;;;;;;;12.18;100.00;102007.56;5094920;28;20106;-66
2023/09/26 01:23:07;;;;;;;21.55;10.77;;;;;;;12.17;100.00;102015.50;5094636;28;20459;-66
2023/09/26 01:25:36;;;;;;;20.55;10.07;;;;;;;12.18;100.00;102017.28;5094892;28;20047;-65
2023/09/26 01:28:06;;;;;;;20.73;10.15;;;;;;;12.19;100.00;102025.28;5093731;28;20055;-66
2023/09/26 01:30:37;;;;;;;21.10;10.35;;;;;;;12.13;100.00;102011.94;5094660;28;20024;-66
2023/09/26 01:33:03;;;;;;;21.60;10.88;;;;;;;12.07;100.00;102019.75;5094669;28;20066;-65
2023/09/26 01:35:29;;;;;;;20.88;10.52;;;;;;;12.00;100.00;102021.44;5094932;28;20078;-66
2023/09/26 01:37:54;;;;;;;20.83;11.02;;;;;;;12.02;100.00;102018.81;5094647;28;20406;-65
2023/09/26 01:40:20;;;;;;;21.20;10.63;;;;;;;12.07;100.00;102019.75;5094588;28;20066;-65
2023/09/26 01:42:45;;;;;;;21.27;11.43;;;;;;;12.14;100.00;102015.47;5094620;28;20378;-65
2023/09/26 01:45:11;;;;;;;22.88;11.10;;;;;;;12.10;100.00;102014.53;5094427;28;20028;-65
2023/09/26 01:47:43;;;;;;;22.38;11.18;;;;;;;12.16;100.00;102016.41;5094468;28;20089;-66
2023/09/26 01:50:09;;;;;;;21.90;11.20;;;;;;;12.09;100.00;102012.72;5094674;28;20434;-64
2023/09/26 01:52:35;;;;;;;21.55;11.32;;;;;;;11.96;100.00;102010.75;5094232;28;20023;-64
2023/09/26 01:55:05;;;;;;;21.25;11.20;;;;;;;11.95;100.00;102006.31;5094272;28;20028;-64
2023/09/26 01:57:32;;;;;;;21.98;11.75;;;;;;;11.85;100.00;102006.13;5094391;28;20532;-64
2023/09/26 02:00:00;;;;;;;21.30;11.68;;;;;;;11.79;100.00;102016.59;5094180;28;20032;-63
2023/09/26 02:02:26;;;;;;;21.85;12.30;;;;;;;11.81;100.00;102011.31;5094079;28;20027;-64
2023/09/26 02:04:51;;;;;;;22.23;11.80;;;;;;;11.88;100.00;102013.22;5094370;28;20405;-64
2023/09/26 02:07:16;;;;;;;22.17;11.45;;;;;;;11.92;100.00;102004.47;5094357;28;20433;-64
2023/09/26 02:09:42;;;;;;;21.30;10.77;;;;;;;11.80;100.00;102009.56;5093918;28;20447;-64
2023/09/26 02:12:07;;;;;;;21.13;11.43;;;;;;;11.83;100.00;102004.31;5075971;28;20032;-64
2023/09/26 02:14:33;;;;;;;22.08;11.60;;;;;;;11.74;100.00;102006.81;5093200;28;20040;-62
2023/09/26 02:16:58;;;;;;;22.40;11.35;;;;;;;11.81;100.00;102012.22;5092522;28;20360;-63
2023/09/26 02:19:23;;;;;;;22.70;12.50;;;;;;;11.75;100.00;101998.88;5094250;28;20039;-64
2023/09/26 02:21:49;;;;;;;23.80;13.10;;;;;;;11.71;100.00;101999.69;5093819;28;20027;-64
2023/09/26 02:24:14;;;;;;;22.35;11.98;;;;;;;11.74;100.00;101996.22;5093568;28;20124;-63
2023/09/26 02:26:39;;;;;;;23.33;12.13;;;;;;;11.72;100.00;101995.28;5094164;28;20028;-64
2023/09/26 02:29:05;;;;;;;22.17;12.00;;;;;;;11.65;100.00;101989.00;5093596;28;20020;-64
2023/09/26 02:31:30;;;;;;;21.45;11.80;;;;;;;11.69;100.00;101996.09;5093846;28;20071;-62
2023/09/26 02:33:56;;;;;;;22.42;11.60;;;;;;;11.74;100.00;101996.22;5093500;28;20039;-64
2023/09/26 02:36:21;;;;;;;22.50;10.70;;;;;;;11.77;100.00;102002.44;5093782;28;20445;-63
2023/09/26 02:38:47;;;;;;;20.67;11.13;;;;;;;11.71;100.00;101999.69;5089434;28;20074;-63
2023/09/26 02:41:12;;;;;;;21.73;10.75;;;;;;;11.72;100.00;102005.88;5093385;28;20074;-64
2023/09/26 02:43:38;;;;;;;21.27;10.75;;;;;;;11.69;100.00;101985.50;5093424;28;20407;-63
2023/09/26 02:46:03;;;;;;;22.98;11.77;;;;;;;11.64;100.00;101987.19;5093854;28;20035;-61
2023/09/26 02:48:28;;;;;;;22.80;13.65;;;;;;;11.56;100.00;101983.50;5093398;28;20464;-64
2023/09/26 02:51:03;;;;;;;23.83;14.10;;;;;;;11.56;100.00;101984.38;5093087;28;20134;-64
2023/09/26 02:53:28;;;;;;;21.90;12.48;;;;;;;11.54;100.00;101987.91;5093327;28;20028;-63
2023/09/26 02:55:53;;;;;;;22.27;11.88;;;;;;;11.51;100.00;101976.38;5091970;28;20039;-64
2023/09/26 02:58:18;;;;;;;22.00;12.57;;;;;;;11.51;100.00;101971.06;5093169;28;20032;-63
2023/09/26 03:00:44;;;;;;;21.40;11.85;;;;;;;11.46;100.00;101972.75;5093344;28;20028;-63
2023/09/26 03:03:09;;;;;;;22.23;12.27;;;;;;;11.41;100.00;101962.94;5093061;28;20147;-63
2023/09/26 03:05:35;;;;;;;22.65;12.07;;;;;;;11.40;100.00;101966.44;5092956;28;20103;-63
2023/09/26 03:08:00;;;;;;;22.65;11.90;;;;;;;11.36;100.00;101961.94;5093196;28;20178;-64
2023/09/26 03:10:26;;;;;;;22.25;11.90;;;;;;;11.35;100.00;101963.72;5092915;28;20032;-63
2023/09/26 03:12:51;;;;;;;21.70;11.70;;;;;;;11.37;100.00;101961.97;5092858;28;20360;-64
2023/09/26 03:15:17;;;;;;;20.98;11.45;;;;;;;11.28;100.00;101960.03;5093064;28;20107;-64
2023/09/26 03:17:43;;;;;;;21.48;11.85;;;;;;;11.25;100.00;101962.63;5093085;28;20391;-62
2023/09/26 03:20:10;;;;;;;23.05;12.60;;;;;;;11.26;100.00;101968.84;5092853;28;20024;-63
2023/09/26 03:22:35;;;;;;;23.05;13.02;;;;;;;11.21;100.00;101959.91;5075097;28;20036;-64
2023/09/26 03:25:00;;;;;;;22.83;12.82;;;;;;;11.23;100.00;101963.50;5092637;28;20063;-64
2023/09/26 03:27:26;;;;;;;22.85;12.80;;;;;;;11.22;100.00;101959.94;5092954;28;20032;-64
2023/09/26 03:29:51;;;;;;;23.73;12.70;;;;;;;11.19;100.00;101962.53;5092716;28;20053;-63
2023/09/26 03:32:17;;;;;;;22.05;11.65;;;;;;;11.21;100.00;101959.91;5092656;28;20070;-64
2023/09/26 03:34:42;;;;;;;23.05;12.25;;;;;;;11.21;100.00;101959.91;5092792;28;20036;-64
2023/09/26 03:37:08;;;;;;;21.98;11.82;;;;;;;11.22;100.00;101959.06;5092603;28;20115;-63
2023/09/26 03:39:33;;;;;;;21.45;11.63;;;;;;;11.20;100.00;101961.66;5092660;28;20024;-63
2023/09/26 03:41:58;;;;;;;21.08;11.25;;;;;;;11.23;100.00;101953.78;5092780;28;20115;-63
2023/09/26 03:44:23;;;;;;;22.85;11.85;;;;;;;11.23;100.00;101964.38;5092545;28;20107;-64
2023/09/26 03:46:49;;;;;;;22.60;11.70;;;;;;;11.20;100.00;101960.75;5092542;28;20020;-63
2023/09/26 03:49:14;;;;;;;21.15;11.57;;;;;;;11.15;100.00;101956.28;5092695;28;20028;-64
2023/09/26 03:51:40;;;;;;;22.50;12.35;;;;;;;11.16;100.00;101962.47;5092502;28;20025;-63
2023/09/26 03:54:06;;;;;;;22.70;12.00;;;;;;;11.13;100.00;101955.34;5092556;28;20032;-63
2023/09/26 03:56:31;;;;;;;22.60;11.38;;;;;;;11.05;100.00;101956.94;5092603;28;20082;-64
2023/09/26 03:58:57;;;;;;;21.65;10.73;;;;;;;11.05;100.00;101946.34;5092425;28;20052;-64
2023/09/26 04:01:22;;;;;;;22.75;11.40;;;;;;;11.00;100.00;101948.03;5091238;28;20067;-59
2023/09/26 04:03:51;;;;;;;23.02;12.30;;;;;;;10.92;100.00;101947.91;5088453;28;20032;-64
2023/09/26 04:06:17;;;;;;;22.33;12.25;;;;;;;10.88;100.00;101947.78;5092354;28;20032;-64
2023/09/26 04:08:43;;;;;;;23.05;12.27;;;;;;;10.86;100.00;101946.84;5092626;28;20042;-59
2023/09/26 04:11:15;;;;;;;22.95;12.20;;;;;;;10.82;100.00;101962.66;5092493;28;20062;-63
2023/09/26 04:13:41;;;;;;;22.02;11.95;;;;;;;10.76;100.00;101951.97;5092192;28;20042;-63
2023/09/26 04:16:07;;;;;;;22.15;12.25;;;;;;;10.72;100.00;101951.88;5092353;28;20032;-63
2023/09/26 04:18:33;;;;;;;23.73;12.75;;;;;;;10.70;100.00;101943.00;5092423;28;20028;-64
2023/09/26 04:21:02;;;;;;;21.48;11.52;;;;;;;10.68;100.00;101947.38;5092381;28;20061;-64
2023/09/26 04:23:28;;;;;;;22.85;12.45;;;;;;;10.70;100.00;101940.34;5090555;28;20067;-64
2023/09/26 04:25:53;;;;;;;22.75;12.32;;;;;;;10.66;100.00;101934.13;5092304;28;20475;-63
2023/09/26 04:28:18;;;;;;;23.13;11.85;;;;;;;10.59;100.00;101937.50;5092402;28;20025;-63
2023/09/26 04:30:44;;;;;;;22.88;12.07;;;;;;;10.57;100.00;101931.25;5092137;28;20032;-63
2023/09/26 04:33:09;;;;;;;23.00;12.32;;;;;;;10.49;100.00;101919.66;5092203;28;20032;-63
2023/09/26 04:35:35;;;;;;;21.70;11.80;;;;;;;10.41;100.00;101920.38;5092061;28;20062;-62
2023/09/26 04:38:01;;;;;;;22.73;12.38;;;;;;;10.43;100.00;101926.56;5094721;28;20024;-63
2023/09/26 04:40:27;;;;;;;21.52;11.60;;;;;;;10.53;100.00;101926.75;5096030;28;20066;-64
2023/09/26 04:42:52;;;;;;;22.50;12.15;;;;;;;10.55;100.00;101928.59;5095746;28;20026;-63
2023/09/26 04:45:17;;;;;;;23.45;13.27;;;;;;;10.57;100.00;101921.59;5095771;28;20540;-64
2023/09/26 04:47:43;;;;;;;21.95;12.65;;;;;;;10.59;100.00;101922.50;5095843;28;20142;-63
2023/09/26 04:50:09;;;;;;;23.20;12.75;;;;;;;10.59;100.00;101916.34;5094536;28;20144;-64
2023/09/26 04:52:36;;;;;;;22.85;12.80;;;;;;;10.60;100.00;101918.09;5095639;28;20032;-64
2023/09/26 04:55:02;;;;;;;22.98;12.73;;;;;;;10.60;100.00;101907.53;5095314;28;20459;-64
2023/09/26 04:57:27;;;;;;;23.55;12.63;;;;;;;10.59;100.00;101911.94;5095478;28;20024;-78
2023/09/26 04:59:53;;;;;;;22.67;12.43;;;;;;;10.56;100.00;101917.16;5095717;28;20024;-79
2023/09/26 05:02:18;;;;;;;23.73;12.10;;;;;;;10.60;100.00;101911.09;5091216;28;20038;-75
2023/09/26 05:04:45;;;;;;;22.77;12.38;;;;;;;10.62;100.00;101913.75;5095247;28;20028;-81
2023/09/26 05:07:11;;;;;;;22.67;13.07;;;;;;;10.60;100.00;101920.75;5095528;28;20028;-82
2023/09/26 05:09:40;;;;;;;23.60;12.82;;;;;;;10.64;100.00;101926.16;5095228;28;20028;-81
2023/09/26 05:12:05;;;;;;;24.23;13.52;;;;;;;10.69;100.00;101918.31;5095308;28;20031;-75
2023/09/26 05:14:30;;;;;;;24.90;13.65;;;;;;;10.72;100.00;101918.38;5095590;28;20433;-78
2023/09/26 05:16:56;;;;;;;23.63;14.38;;;;;;;10.77;100.00;101911.41;5095092;28;20032;-81
2023/09/26 05:19:21;;;;;;;24.40;12.88;;;;;;;10.78;100.00;101907.03;5095086;28;20141;-81
2023/09/26 05:21:47;;;;;;;24.13;13.65;;;;;;;10.85;100.00;101911.59;5095143;28;20475;-76
2023/09/26 05:24:13;;;;;;;23.00;13.57;;;;;;;10.84;100.00;101927.44;5094945;28;20078;-80
2023/09/26 05:26:38;;;;;;;24.42;14.20;;;;;;;10.77;100.00;101916.69;5094964;28;20036;-77
2023/09/26 05:29:04;;;;;;;23.15;13.48;;;;;;;10.74;100.00;101914.00;5095033;28;20043;-80
2023/09/26 05:31:30;;;;;;;23.60;13.80;;;;;;;10.72;100.00;101921.03;5094950;28;20028;-81
2023/09/26 05:33:56;;;;;;;24.73;13.75;;;;;;;10.68;100.00;101916.53;5092915;28;20119;-69
2023/09/26 05:36:22;;;;;;;23.83;14.10;;;;;;;10.66;100.00;101912.97;5093064;28;20020;-65
2023/09/26 05:38:47;;;;;;;26.13;16.63;;;;;;;10.63;100.00;101924.38;5094724;28;20028;-64
2023/09/26 05:41:13;;;;;;;26.30;15.43;;;;;;;10.66;100.00;101917.34;5094746;28;20423;-61
2023/09/26 05:43:38;;;;;;;24.23;14.82;;;;;;;10.58;100.00;101919.84;5093982;28;20455;-61
2023/09/26 05:46:04;;;;;;;25.25;14.85;;;;;;;10.61;100.00;101919.91;5090536;28;20042;-64
2023/09/26 05:48:29;;;;;;;24.35;15.43;;;;;;;10.64;100.00;101926.16;5093485;28;20558;-62
2023/09/26 05:50:59;;;;;;;24.30;15.07;;;;;;;10.68;100.00;101927.09;5094311;28;20413;-63
2023/09/26 05:53:25;;;;;;;25.63;15.25;;;;;;;10.76;100.00;101930.81;5095476;28;20055;-67
2023/09/26 05:55:51;;;;;;;23.27;14.35;;;;;;;10.85;100.00;101930.09;5094352;28;20058;-61
2023/09/26 05:58:18;;;;;;;24.45;15.18;;;;;;;10.95;100.00;101934.72;5089494;28;20050;-65
2023/09/26 06:00:45;;;;;;;25.55;14.88;;;;;;;11.04;100.00;101930.44;5094345;28;20028;-61
2023/09/26 06:03:11;;;;;;;25.75;15.00;;;;;;;11.15;100.00;101935.13;5094329;28;20486;-62
2023/09/26 06:05:36;;;;;;;25.10;15.23;;;;;;;11.27;100.00;101933.53;5094304;28;20110;-61
2023/09/26 06:08:01;;;;;;;24.95;15.07;;;;;;;11.40;100.00;101924.06;5093974;28;20032;-61
2023/09/26 06:10:27;;;;;;;25.20;15.40;;;;;;;11.48;100.00;101933.94;5094187;28;20027;-66
2023/09/26 06:12:55;;;;;;;26.08;16.55;;;;;;;11.56;100.00;101927.91;5093777;28;20036;-61
2023/09/26 06:15:21;;;;;;;25.17;16.38;;;;;;;11.63;100.00;101932.44;5092716;28;20028;-63
2023/09/26 06:17:46;;;;;;;24.98;16.05;;;;;;;11.69;100.00;101928.16;5090423;28;20467;-61
2023/09/26 06:20:12;;;;;;;27.45;15.85;;;;;;;11.76;100.00;101918.53;5093943;28;20032;-64
2023/09/26 06:22:37;;;;;;;24.27;15.65;;;;;;;11.82;100.00;101918.66;5093663;28;20114;-61
2023/09/26 06:25:04;;;;;;;24.40;15.38;;;;;;;11.89;100.00;101914.31;5093712;28;20048;-64
2023/09/26 06:27:35;;;;;;;25.33;15.63;;;;;;;11.99;100.00;101905.69;5075669;28;20395;-61
2023/09/26 06:30:01;;;;;;;24.45;15.57;;;;;;;12.02;100.00;101908.38;5090229;28;20024;-62
2023/09/26 06:32:26;;;;;;;26.17;15.77;;;;;;;12.08;100.00;101904.94;5093870;28;20020;-61
2023/09/26 06:34:57;;;;;;;26.17;16.00;;;;;;;12.20;100.00;101909.50;5093297;28;20071;-61
2023/09/26 06:37:23;;;;;;;23.85;15.85;;;;;;;12.28;100.00;101904.34;5093898;28;20052;-62
2023/09/26 06:39:48;;;;;;;25.48;15.93;;;;;;;12.34;100.00;101901.78;5093617;28;20048;-61
2023/09/26 06:42:13;;;;;;;24.83;15.48;;;;;;;12.36;100.00;101915.94;5090130;28;20042;-62
2023/09/26 06:44:39;;;;;;;23.50;15.45;;;;;;;12.39;100.00;101910.66;5093181;28;20042;-61
2023/09/26 06:47:04;;;;;;;24.38;14.60;;;;;;;12.51;100.00;101910.84;5093294;28;20103;-61
2023/09/26 06:49:30;;;;;;;24.58;14.82;;;;;;;12.59;100.00;101916.25;5088898;28;20120;-61
2023/09/26 06:51:55;;;;;;;25.23;13.85;;;;;;;12.72;100.00;101919.94;5093015;28;20486;-62
2023/09/26 06:54:20;;;;;;;27.80;14.88;;;;;;;12.74;100.00;101915.53;5093478;28;20031;-64
2023/09/26 06:56:46;;;;;;;25.73;14.60;;;;;;;12.81;100.00;101922.69;5093372;28;20085;-62
2023/09/26 06:59:11;;;;;;;23.77;13.95;;;;;;;12.90;100.00;101924.56;5093415;28;20031;-63
2023/09/26 07:01:36;;;;;;;23.73;14.13;;;;;;;13.02;100.00;101927.38;5092774;28;20109;-67
2023/09/26 07:04:02;;;;;;;24.15;13.88;;;;;;;13.07;100.00;101928.31;5093114;28;20424;-61
2023/09/26 07:06:27;;;;;;;23.90;13.07;;;;;;;13.20;100.00;101932.00;5093154;28;20042;-61
2023/09/26 07:08:55;;;;;;;23.83;13.05;;;;;;;13.33;100.00;101925.06;5093145;28;20024;-61
2023/09/26 07:11:22;;;;;;;22.65;12.60;;;;;;;13.50;100.00;101927.94;5093048;28;20042;-65
2023/09/26 07:13:48;;;;;;;23.27;12.02;;;;;;;13.73;100.00;101928.13;5092964;28;20058;-61
2023/09/26 07:16:13;;;;;;;21.52;11.18;;;;;;;13.92;100.00;101928.25;5092925;28;20535;-61
2023/09/26 07:18:38;;;;;;;24.27;11.43;;;;;;;14.06;100.00;101923.06;5092022;28;20050;-63
2023/09/26 07:21:07;;;;;;;22.60;11.02;;;;;;;14.16;100.00;101916.03;5082168;28;20059;-69
2023/09/26 07:23:34;;;;;;;21.95;11.07;;;;;;;14.29;100.00;101915.22;5092391;28;20079;-62
2023/09/26 07:26:14;;;;;;;21.63;10.52;;;;;;;14.33;100.00;101918.78;5092565;28;20028;-64
2023/09/26 07:28:40;;;;;;;21.23;10.32;;;;;;;14.38;100.00;101915.28;5092558;28;20035;-63
2023/09/26 07:31:06;;;;;;;21.73;10.07;;;;;;;14.50;100.00;101914.44;5092614;28;20024;-62
2023/09/26 07:33:32;;;;;;;21.73;10.35;;;;;;;14.67;100.00;101916.34;5092598;28;20082;-64
2023/09/26 07:35:57;;;;;;;20.60;9.75;;;;;;;14.83;100.00;101926.16;5091178;28;20471;-64
2023/09/26 07:38:23;;;;;;;20.20;9.60;;;;;;;15.01;100.00;101921.78;5092893;28;20028;-65
2023/09/26 07:40:48;;;;;;;20.63;8.93;;;;;;;15.19;100.00;101916.53;5092491;28;20459;-64
2023/09/26 07:43:14;;;;;;;20.40;9.00;;;;;;;15.35;100.00;101912.13;5092342;28;20028;-64
2023/09/26 07:45:39;;;;;;;21.08;8.88;;;;;;;15.50;100.00;101905.91;5092482;28;20028;-64
2023/09/26 07:48:05;;;;;;;21.23;9.23;;;;;;;15.49;100.00;101914.78;5092518;28;20046;-64
2023/09/26 07:50:30;;;;;;;19.67;8.77;;;;;;;15.48;100.00;101905.03;5087666;28;20020;-61
2023/09/26 07:52:56;;;;;;;19.95;8.85;;;;;;;15.53;100.00;101908.56;5086464;28;20119;-65
2023/09/26 07:55:21;;;;;;;20.85;8.90;;;;;;;15.66;100.00;101913.00;5092169;28;20021;-66
2023/09/26 07:57:46;;;;;;;21.45;8.68;;;;;;;15.84;100.00;101914.84;5087960;28;20608;-63
2023/09/26 08:00:13;;;;;;;20.63;8.73;;;;;;;15.97;100.00;101915.69;5092344;28;20398;-63
2023/09/26 08:02:38;;;;;;;21.45;8.45;;;;;;;16.16;100.00;101907.66;5092206;28;20111;-63
2023/09/26 08:05:04;;;;;;;19.00;8.10;;;;;;;16.37;100.00;101915.63;5092468;28;20158;-64
2023/09/26 08:07:29;;;;;;;19.20;8.13;;;;;;;16.59;100.00;101904.88;5092212;28;20105;-63
2023/09/26 08:10:00;;;;;;;19.25;8.27;;;;;;;16.74;100.00;101906.59;5092299;28;20520;-63
2023/09/26 08:12:25;;;;;;;20.30;7.95;;;;;;;16.90;100.00;101897.63;5093960;28;20032;-64
2023/09/26 08:14:54;;;;;;;20.25;8.05;;;;;;;17.13;100.00;101887.75;5096117;28;20035;-64
2023/09/26 08:17:19;;;;;;;20.00;7.68;;;;;;;17.02;100.00;101883.34;5092234;28;20030;-64
2023/09/26 08:19:45;;;;;;;19.42;7.90;;;;;;;16.99;100.00;101880.66;5095267;28;20032;-64
2023/09/26 08:22:10;;;;;;;19.60;7.40;;;;;;;17.01;100.00;101894.91;5095856;28;20112;-63
2023/09/26 08:24:35;;;;;;;19.40;7.22;;;;;;;17.19;100.00;101898.38;5090598;28;20050;-64
2023/09/26 08:27:01;;;;;;;19.70;7.70;;;;;;;17.29;100.00;101892.06;5095900;28;20024;-64
2023/09/26 08:29:26;;;;;;;19.25;7.05;;;;;;;17.51;100.00;101884.78;5093118;28;20068;-63
2023/09/26 08:31:51;;;;;;;18.90;7.70;;;;;;;17.91;100.00;101894.25;5096075;28;20107;-72
2023/09/26 08:34:17;;;;;;;19.00;6.90;;;;;;;18.24;100.00;101890.34;5096643;28;20360;-75
2023/09/26 08:36:42;;;;;;;18.85;6.50;;;;;;;18.71;100.00;101896.06;5096515;28;20032;-68
2023/09/26 08:39:08;;;;;;;17.73;6.50;;;;;;;18.82;100.00;101891.41;5095884;28;20026;-71
2023/09/26 08:41:35;;;;;;;19.25;6.75;;;;;;;18.98;100.00;101901.97;5095816;28;20498;-70
2023/09/26 08:44:01;;;;;;;18.25;6.40;;;;;;;19.34;100.00;101897.84;5095718;28;20086;-73
2023/09/26 08:46:26;;;;;;;18.52;6.15;;;;;;;19.40;100.00;101888.84;5095751;28;20028;-62
2023/09/26 08:48:55;;;;;;;18.65;6.30;;;;;;;19.55;100.00;101887.69;5082398;28;20024;-63
2023/09/26 08:51:21;;;;;;;17.77;6.00;;;;;;;19.67;100.00;101882.13;5091807;28;20028;-66
2023/09/26 08:53:46;;;;;;;18.08;6.05;;;;;;;19.75;100.00;101876.63;5095144;28;20032;-64
2023/09/26 08:56:12;;;;;;;18.20;6.30;;;;;;;19.66;100.00;101880.34;5095545;28;20058;-66
2023/09/26 08:58:40;;;;;;;18.75;6.25;;;;;;;19.64;100.00;101886.66;5095169;28;20025;-61
2023/09/26 09:01:06;;;;;;;18.58;6.05;;;;;;;19.77;100.00;101880.16;5094588;28;20029;-63
2023/09/26 09:03:32;;;;;;;18.80;6.15;;;;;;;20.03;100.00;101868.09;5095134;28;20048;-60
2023/09/26 09:05:58;;;;;;;18.23;6.20;;;;;;;20.55;100.00;101877.78;5090447;28;20032;-60
2023/09/26 09:08:23;;;;;;;19.00;6.45;;;;;;;21.11;100.00;101871.22;5095307;28;20383;-61
2023/09/26 09:10:49;;;;;;;17.27;5.88;;;;;;;21.70;100.00;101865.31;5095290;28;20016;-60
2023/09/26 09:13:35;;;;;;;19.08;5.90;;;;;;;22.07;100.00;101879.59;5095171;28;20024;-61
2023/09/26 09:16:18;;;;;;;18.55;5.63;;;;;;;22.27;100.00;101871.84;5093612;28;20020;-60
2023/09/26 09:18:51;;;;;;;17.98;5.50;;;;;;;23.07;100.00;101878.50;5091177;28;20032;-62
2023/09/26 09:21:21;;;;;;;17.95;5.53;;;;;;;23.42;100.00;101879.19;5091772;28;20031;-62
2023/09/26 09:23:47;;;;;;;17.80;5.43;;;;;;;23.88;100.00;101884.84;5094792;28;20468;-64
2023/09/26 09:26:12;;;;;;;16.58;5.35;;;;;;;24.01;100.00;101887.09;5094915;28;20043;-64
2023/09/26 09:28:38;;;;;;;16.95;5.30;;;;;;;23.38;100.00;101888.31;5094675;28;20459;-63
2023/09/26 09:31:03;;;;;;;17.48;5.53;;;;;;;23.27;100.00;101880.56;5094899;28;20356;-62
2023/09/26 09:33:28;;;;;;;15.70;4.90;;;;;;;23.77;100.00;101886.09;5094477;28;20048;-61
2023/09/26 09:35:54;;;;;;;16.50;4.60;;;;;;;24.01;100.00;101878.09;5094703;28;20032;-60
2023/09/26 09:38:19;;;;;;;15.90;4.80;;;;;;;23.51;100.00;101876.19;5091539;28;20028;-63
2023/09/26 09:40:46;;;;;;;15.20;4.80;;;;;;;23.41;100.00;101872.91;5094711;28;20032;-64
2023/09/26 09:43:11;;;;;;;14.50;4.30;;;;;;;23.50;100.00;101869.00;5094624;28;20035;-65
2023/09/26 09:45:37;;;;;;;15.88;4.00;;;;;;;23.57;100.00;101862.47;5094658;28;20382;-64
2023/09/26 09:48:06;;;;;;;15.88;4.97;;;;;;;24.12;100.00;101854.28;5093202;28;20052;-64
2023/09/26 09:50:37;;;;;;;15.07;4.32;;;;;;;24.23;100.00;101843.06;5090703;28;20030;-65
2023/09/26 09:53:04;;;;;;;17.73;4.40;;;;;;;23.98;100.00;101849.41;5089097;28;20063;-65
2023/09/26 09:55:38;;;;;;;16.65;5.03;;;;;;;23.61;100.00;101852.47;5094211;28;20485;-64
2023/09/26 09:58:09;;;;;;;15.90;4.60;;;;;;;23.17;100.00;101857.53;5090321;28;20024;-66
2023/09/26 10:00:39;;;;;;;14.95;4.55;;;;;;;22.85;100.00;101857.59;5090331;28;20024;-66
2023/09/26 10:03:05;;;;;;;16.98;4.40;;;;;;;22.91;100.00;101862.78;5090330;28;20085;-68
2023/09/26 10:05:31;;;;;;;15.57;4.38;;;;;;;23.22;100.00;101856.44;5094082;28;20379;-69
2023/09/26 10:07:58;;;;;;;13.25;4.50;;;;;;;22.90;100.00;101861.03;5093908;28;20035;-68
2023/09/26 10:10:25;;;;;;;15.20;4.20;;;;;;;22.52;100.00;101856.81;5082600;28;20039;-77
2023/09/26 10:12:51;;;;;;;14.50;4.40;;;;;;;22.18;100.00;101853.25;5083324;28;20033;-65
2023/09/26 10:15:17;;;;;;;15.77;4.80;;;;;;;22.13;100.00;101847.13;5092347;28;20047;-67
2023/09/26 10:17:46;;;;;;;15.40;4.40;;;;;;;21.94;100.00;101853.03;5084072;28;20025;-69
2023/09/26 10:20:14;;;;;;;15.07;4.80;;;;;;;21.79;100.00;101853.44;5084045;28;20040;-67
2023/09/26 10:22:41;;;;;;;16.25;4.70;;;;;;;21.77;100.00;101844.53;5083067;28;20423;-65
2023/09/26 10:25:08;;;;;;;15.00;4.75;;;;;;;21.95;100.00;101853.91;5082259;28;20129;-65
2023/09/26 10:27:34;;;;;;;15.88;4.85;;;;;;;22.01;100.00;101858.25;5086552;28;20024;-66
2023/09/26 10:30:03;;;;;;;15.55;4.55;;;;;;;21.92;100.00;101849.47;5093462;28;20093;-65
2023/09/26 10:32:38;;;;;;;15.10;4.68;;;;;;;22.03;100.00;101853.69;5093838;28;20502;-66
2023/09/26 10:35:15;;;;;;;16.58;4.82;;;;;;;22.83;100.00;101864.84;5092993;28;20036;-66
2023/09/26 10:37:45;;;;;;;16.58;4.70;;;;;;;23.38;100.00;101854.13;5093467;28;20532;-66
2023/09/26 10:40:12;;;;;;;16.33;4.93;;;;;;;23.54;100.00;101845.53;5093516;28;20466;-66
2023/09/26 10:42:42;;;;;;;14.88;4.47;;;;;;;23.53;100.00;101838.34;5093644;28;20035;-65
2023/09/26 10:45:09;;;;;;;17.60;4.80;;;;;;;23.57;100.00;101832.78;5092211;28;20040;-66
2023/09/26 10:47:37;;;;;;;16.92;4.65;;;;;;;23.71;100.00;101826.94;5093432;28;20073;-64
2023/09/26 10:50:13;;;;;;;16.50;4.60;;;;;;;23.82;100.00;101834.63;5090427;28;20055;-65
2023/09/26 10:52:46;;;;;;;15.63;4.63;;;;;;;23.95;100.00;101846.78;5089050;28;20085;-66
2023/09/26 10:55:16;;;;;;;16.40;4.75;;;;;;;23.78;100.00;101849.16;5093015;28;20399;-62
2023/09/26 10:57:43;;;;;;;14.52;4.57;;;;;;;24.12;100.00;101838.06;5086768;28;20039;-66
2023/09/26 11:00:13;;;;;;;14.35;4.50;;;;;;;24.67;100.00;101836.97;5081097;28;20120;-65
2023/09/26 11:02:41;;;;;;;14.00;4.38;;;;;;;24.97;100.00;101837.53;5082000;28;20046;-64